sensor_id;sensor_type;location;lat;lon;timestamp;P1;P2;P0
33507;PMS7003;25568;37.410;-122.096;2024-01-15T00:00:21;0.00;0.00;0.00
33507;PMS7003;25568;37.410;-122.096;2024-01-15T00:02:56;0.00;0.00;0.00
33507;PMS7003;25568;37.410;-122.096;2024-01-15T00:05:27;0.00;0.00;0.00
33507;PMS7003;25568;37.410;-122.096;2024-01-15T00:07:58;0.00;0.00;0.00
33507;PMS7003;25568;37.410;-122.096;2024-01-15T00:10:27;0.00;0.00;0.00
33507;PMS7003;25568;37.410;-122.096;2024-01-15T00:13:00;0.00;0.00;0.00
33507;PMS7003;25568;37.410;-122.096;2024-01-15T00:15:30;0.00;0.00;0.00
33507;PMS7003;25568;37.410;-122.096;2024-01-15T00:18:01;0.00;0.00;0.00
33507;PMS7003;25568;37.410;-122.096;2024-01-15T00:20:31;0.00;0.00;0.00
33507;PMS7003;25568;37.410;-122.096;2024-01-15T00:23:02;0.00;0.00;0.00
33507;PMS7003;25568;37.410;-122.096;2024-01-15T00:25:32;0.00;0.00;0.00
33507;PMS7003;25568;37.410;-122.096;2024-01-15T00:28:01;0.00;0.00;0.00
33507;PMS7003;25568;37.410;-122.096;2024-01-15T00:30:30;0.00;0.00;0.00
33507;PMS7003;25568;37.410;-122.096;2024-01-15T00:33:03;0.00;0.00;0.00
33507;PMS7003;25568;37.410;-122.096;2024-01-15T00:35:33;0.00;0.00;0.00
33507;PMS7003;25568;37.410;-122.096;2024-01-15T00:38:12;0.00;0.00;0.00
33507;PMS7003;25568;37.410;-122.096;2024-01-15T00:40:41;0.00;0.00;0.00
33507;PMS7003;25568;37.410;-122.096;2024-01-15T00:43:11;0.00;0.00;0.00
33507;PMS7003;25568;37.410;-122.096;2024-01-15T00:45:43;0.00;0.00;0.00
33507;PMS7003;25568;37.410;-122.096;2024-01-15T00:48:13;0.00;0.00;0.00
33507;PMS7003;25568;37.410;-122.096;2024-01-15T00:50:43;0.00;0.00;0.00
33507;PMS7003;25568;37.410;-122.096;2024-01-15T00:53:14;0.00;0.00;0.00
33507;PMS7003;25568;37.410;-122.096;2024-01-15T00:55:45;0.00;0.00;0.00
33507;PMS7003;25568;37.410;-122.096;2024-01-15T00:58:14;0.00;0.00;0.00
33507;PMS7003;25568;37.410;-122.096;2024-01-15T01:00:44;0.00;0.00;0.00
33507;PMS7003;25568;37.410;-122.096;2024-01-15T01:03:14;0.00;0.00;0.00
33507;PMS7003;25568;37.410;-122.096;2024-01-15T01:05:44;0.00;0.00;0.00
33507;PMS7003;25568;37.410;-122.096;2024-01-15T01:08:18;0.00;0.00;0.00
33507;PMS7003;25568;37.410;-122.096;2024-01-15T01:10:47;0.00;0.00;0.00
33507;PMS7003;25568;37.410;-122.096;2024-01-15T01:13:19;0.00;0.00;0.00
33507;PMS7003;25568;37.410;-122.096;2024-01-15T01:15:48;0.00;0.00;0.00
33507;PMS7003;25568;37.410;-122.096;2024-01-15T01:18:18;0.00;0.00;0.00
33507;PMS7003;25568;37.410;-122.096;2024-01-15T01:20:48;0.00;0.00;0.00
33507;PMS7003;25568;37.410;-122.096;2024-01-15T01:23:23;0.00;0.00;0.00
33507;PMS7003;25568;37.410;-122.096;2024-01-15T01:25:52;0.50;0.00;0.00
33507;PMS7003;25568;37.410;-122.096;2024-01-15T01:28:22;0.00;0.00;0.00
33507;PMS7003;25568;37.410;-122.096;2024-01-15T01:30:52;0.00;0.00;0.00
33507;PMS7003;25568;37.410;-122.096;2024-01-15T01:33:22;0.00;0.00;0.00
33507;PMS7003;25568;37.410;-122.096;2024-01-15T01:35:54;0.00;0.00;0.00
33507;PMS7003;25568;37.410;-122.096;2024-01-15T01:38:28;0.00;0.00;0.00
33507;PMS7003;25568;37.410;-122.096;2024-01-15T01:40:59;2.00;1.00;1.00
33507;PMS7003;25568;37.410;-122.096;2024-01-15T01:43:29;2.00;0.33;0.00
33507;PMS7003;25568;37.410;-122.096;2024-01-15T01:46:00;3.00;2.00;1.33
33507;PMS7003;25568;37.410;-122.096;2024-01-15T01:48:36;4.00;3.00;2.75
33507;PMS7003;25568;37.410;-122.096;2024-01-15T01:51:06;4.67;3.67;2.67
33507;PMS7003;25568;37.410;-122.096;2024-01-15T01:53:43;7.00;4.00;3.00
33507;PMS7003;25568;37.410;-122.096;2024-01-15T01:56:15;6.00;4.25;3.00
33507;PMS7003;25568;37.410;-122.096;2024-01-15T01:58:48;5.50;4.00;3.25
33507;PMS7003;25568;37.410;-122.096;2024-01-15T02:01:21;4.00;4.00;3.00
33507;PMS7003;25568;37.410;-122.096;2024-01-15T02:03:53;4.00;3.33;2.00
33507;PMS7003;25568;37.410;-122.096;2024-01-15T02:06:23;2.25;2.00;2.00
33507;PMS7003;25568;37.410;-122.096;2024-01-15T02:09:08;2.00;2.00;1.33
33507;PMS7003;25568;37.410;-122.096;2024-01-15T02:11:41;1.00;1.00;1.00
33507;PMS7003;25568;37.410;-122.096;2024-01-15T02:14:12;4.67;3.00;2.67
33507;PMS7003;25568;37.410;-122.096;2024-01-15T02:16:43;2.33;2.00;2.00
33507;PMS7003;25568;37.410;-122.096;2024-01-15T02:19:14;3.67;2.00;1.33
33507;PMS7003;25568;37.410;-122.096;2024-01-15T02:21:46;4.00;4.00;3.00
33507;PMS7003;25568;37.410;-122.096;2024-01-15T02:24:18;2.00;2.00;2.00
33507;PMS7003;25568;37.410;-122.096;2024-01-15T02:26:51;2.00;1.33;1.00
33507;PMS7003;25568;37.410;-122.096;2024-01-15T02:29:22;1.67;1.00;1.00
33507;PMS7003;25568;37.410;-122.096;2024-01-15T02:31:58;0.00;0.00;0.00
33507;PMS7003;25568;37.410;-122.096;2024-01-15T02:34:34;2.00;2.00;1.33
33507;PMS7003;25568;37.410;-122.096;2024-01-15T02:37:05;1.00;0.00;0.00
33507;PMS7003;25568;37.410;-122.096;2024-01-15T02:39:40;1.00;1.00;1.00
33507;PMS7003;25568;37.410;-122.096;2024-01-15T02:42:14;2.33;2.00;2.00
33507;PMS7003;25568;37.410;-122.096;2024-01-15T02:44:45;2.00;2.00;1.00
33507;PMS7003;25568;37.410;-122.096;2024-01-15T02:47:17;3.00;2.00;1.33
33507;PMS7003;25568;37.410;-122.096;2024-01-15T02:49:48;4.67;1.00;0.33
33507;PMS7003;25568;37.410;-122.096;2024-01-15T02:52:18;4.00;3.00;2.75
33507;PMS7003;25568;37.410;-122.096;2024-01-15T02:54:50;5.00;4.50;4.00
33507;PMS7003;25568;37.410;-122.096;2024-01-15T02:57:21;8.00;7.00;5.00
33507;PMS7003;25568;37.410;-122.096;2024-01-15T02:59:55;7.25;6.75;5.00
33507;PMS7003;25568;37.410;-122.096;2024-01-15T03:02:27;8.00;7.25;6.25
33507;PMS7003;25568;37.410;-122.096;2024-01-15T03:04:58;7.00;6.00;5.00
33507;PMS7003;25568;37.410;-122.096;2024-01-15T03:07:31;7.00;6.25;5.00
33507;PMS7003;25568;37.410;-122.096;2024-01-15T03:10:04;7.25;5.50;4.00
33507;PMS7003;25568;37.410;-122.096;2024-01-15T03:12:36;9.00;8.75;7.00
33507;PMS7003;25568;37.410;-122.096;2024-01-15T03:15:07;8.00;7.00;5.25
33507;PMS7003;25568;37.410;-122.096;2024-01-15T03:17:38;6.00;5.00;4.00
33507;PMS7003;25568;37.410;-122.096;2024-01-15T03:20:11;8.75;6.25;5.00
33507;PMS7003;25568;37.410;-122.096;2024-01-15T03:22:45;7.75;6.50;5.00
33507;PMS7003;25568;37.410;-122.096;2024-01-15T03:25:18;4.00;4.00;4.00
33507;PMS7003;25568;37.410;-122.096;2024-01-15T03:27:47;6.75;5.50;4.75
33507;PMS7003;25568;37.410;-122.096;2024-01-15T03:30:17;5.75;5.00;4.25
33507;PMS7003;25568;37.410;-122.096;2024-01-15T03:32:47;7.00;5.00;4.00
33507;PMS7003;25568;37.410;-122.096;2024-01-15T03:35:18;7.75;7.00;6.50
33507;PMS7003;25568;37.410;-122.096;2024-01-15T03:37:48;5.75;5.50;4.25
33507;PMS7003;25568;37.410;-122.096;2024-01-15T03:40:19;8.25;6.75;4.00
33507;PMS7003;25568;37.410;-122.096;2024-01-15T03:42:49;7.00;6.00;5.00
33507;PMS7003;25568;37.410;-122.096;2024-01-15T03:45:20;8.00;5.00;4.00
33507;PMS7003;25568;37.410;-122.096;2024-01-15T03:47:50;5.00;5.00;4.00
33507;PMS7003;25568;37.410;-122.096;2024-01-15T03:50:20;5.00;4.00;4.00
33507;PMS7003;25568;37.410;-122.096;2024-01-15T03:52:50;4.00;3.00;3.00
33507;PMS7003;25568;37.410;-122.096;2024-01-15T03:55:23;5.00;4.75;4.00
33507;PMS7003;25568;37.410;-122.096;2024-01-15T03:57:52;3.00;3.00;3.00
33507;PMS7003;25568;37.410;-122.096;2024-01-15T04:00:22;4.50;3.00;2.00
33507;PMS7003;25568;37.410;-122.096;2024-01-15T04:02:51;4.50;3.25;3.00
33507;PMS7003;25568;37.410;-122.096;2024-01-15T04:05:22;3.50;2.25;2.00
33507;PMS7003;25568;37.410;-122.096;2024-01-15T04:07:52;5.75;3.00;2.75
33507;PMS7003;25568;37.410;-122.096;2024-01-15T04:10:25;4.75;3.00;3.00
33507;PMS7003;25568;37.410;-122.096;2024-01-15T04:12:54;5.25;3.00;2.75
33507;PMS7003;25568;37.410;-122.096;2024-01-15T04:15:25;3.75;3.00;2.50
33507;PMS7003;25568;37.410;-122.096;2024-01-15T04:17:55;4.00;3.00;2.00
33507;PMS7003;25568;37.410;-122.096;2024-01-15T04:20:25;3.00;2.75;2.00
33507;PMS7003;25568;37.410;-122.096;2024-01-15T04:22:58;3.00;2.50;2.50
33507;PMS7003;25568;37.410;-122.096;2024-01-15T04:25:32;5.00;4.50;3.75
33507;PMS7003;25568;37.410;-122.096;2024-01-15T04:28:01;3.00;3.00;2.25
33507;PMS7003;25568;37.410;-122.096;2024-01-15T04:30:31;3.00;2.50;2.00
33507;PMS7003;25568;37.410;-122.096;2024-01-15T04:33:01;2.00;2.00;2.00
33507;PMS7003;25568;37.410;-122.096;2024-01-15T04:35:30;2.50;1.00;1.00
33507;PMS7003;25568;37.410;-122.096;2024-01-15T04:38:01;4.00;3.00;2.00
33507;PMS7003;25568;37.410;-122.096;2024-01-15T04:40:33;3.00;2.00;1.00
33507;PMS7003;25568;37.410;-122.096;2024-01-15T04:43:02;1.00;1.00;1.00
33507;PMS7003;25568;37.410;-122.096;2024-01-15T04:45:32;1.25;1.00;1.00
33507;PMS7003;25568;37.410;-122.096;2024-01-15T04:48:04;2.00;2.00;1.33
33507;PMS7003;25568;37.410;-122.096;2024-01-15T04:50:45;1.00;1.00;1.00
33507;PMS7003;25568;37.410;-122.096;2024-01-15T04:53:14;2.00;1.25;1.00
33507;PMS7003;25568;37.410;-122.096;2024-01-15T04:55:47;2.00;2.00;1.75
33507;PMS7003;25568;37.410;-122.096;2024-01-15T04:58:17;2.00;1.00;1.00
33507;PMS7003;25568;37.410;-122.096;2024-01-15T05:00:50;2.00;1.67;1.00
33507;PMS7003;25568;37.410;-122.096;2024-01-15T05:03:20;1.00;1.00;1.00
33507;PMS7003;25568;37.410;-122.096;2024-01-15T05:05:49;2.75;2.00;1.50
33507;PMS7003;25568;37.410;-122.096;2024-01-15T05:08:19;2.00;1.33;1.33
33507;PMS7003;25568;37.410;-122.096;2024-01-15T05:10:51;1.00;1.00;1.00
33507;PMS7003;25568;37.410;-122.096;2024-01-15T05:13:20;2.00;2.00;1.00
33507;PMS7003;25568;37.410;-122.096;2024-01-15T05:15:51;1.33;1.33;1.00
33507;PMS7003;25568;37.410;-122.096;2024-01-15T05:18:21;2.50;2.00;2.00
33507;PMS7003;25568;37.410;-122.096;2024-01-15T05:20:51;1.00;1.00;1.00
33507;PMS7003;25568;37.410;-122.096;2024-01-15T05:23:20;1.33;1.33;1.33
33507;PMS7003;25568;37.410;-122.096;2024-01-15T05:25:53;1.00;1.00;1.00
33507;PMS7003;25568;37.410;-122.096;2024-01-15T05:28:22;2.50;2.00;2.00
33507;PMS7003;25568;37.410;-122.096;2024-01-15T05:30:51;2.33;2.00;2.00
33507;PMS7003;25568;37.410;-122.096;2024-01-15T05:33:22;2.75;2.00;2.00
33507;PMS7003;25568;37.410;-122.096;2024-01-15T05:35:52;3.00;2.00;2.00
33507;PMS7003;25568;37.410;-122.096;2024-01-15T05:38:21;3.00;3.00;2.00
33507;PMS7003;25568;37.410;-122.096;2024-01-15T05:40:53;2.50;2.00;1.25
33507;PMS7003;25568;37.410;-122.096;2024-01-15T05:43:22;3.00;2.25;2.00
33507;PMS7003;25568;37.410;-122.096;2024-01-15T05:45:52;1.33;1.33;0.67
33507;PMS7003;25568;37.410;-122.096;2024-01-15T05:48:22;1.75;1.75;1.75
33507;PMS7003;25568;37.410;-122.096;2024-01-15T05:50:52;2.00;2.00;2.00
33507;PMS7003;25568;37.410;-122.096;2024-01-15T05:53:22;2.00;2.00;2.00
33507;PMS7003;25568;37.410;-122.096;2024-01-15T05:55:53;2.25;2.25;1.25
33507;PMS7003;25568;37.410;-122.096;2024-01-15T05:58:23;3.50;2.00;2.00
33507;PMS7003;25568;37.410;-122.096;2024-01-15T06:00:53;3.00;2.00;2.00
33507;PMS7003;25568;37.410;-122.096;2024-01-15T06:03:22;1.25;1.25;1.25
33507;PMS7003;25568;37.410;-122.096;2024-01-15T06:05:52;3.00;3.00;2.25
33507;PMS7003;25568;37.410;-122.096;2024-01-15T06:08:22;1.75;1.75;1.50
33507;PMS7003;25568;37.410;-122.096;2024-01-15T06:10:55;2.00;2.00;1.75
33507;PMS7003;25568;37.410;-122.096;2024-01-15T06:13:25;2.00;2.00;2.00
33507;PMS7003;25568;37.410;-122.096;2024-01-15T06:15:56;1.67;1.00;1.00
33507;PMS7003;25568;37.410;-122.096;2024-01-15T06:18:29;4.00;3.00;2.00
33507;PMS7003;25568;37.410;-122.096;2024-01-15T06:21:03;1.25;1.25;1.00
33507;PMS7003;25568;37.410;-122.096;2024-01-15T06:23:33;2.00;2.00;2.00
33507;PMS7003;25568;37.410;-122.096;2024-01-15T06:26:05;2.67;2.00;1.00
33507;PMS7003;25568;37.410;-122.096;2024-01-15T06:28:37;2.25;2.00;2.00
33507;PMS7003;25568;37.410;-122.096;2024-01-15T06:31:09;2.00;1.67;1.33
33507;PMS7003;25568;37.410;-122.096;2024-01-15T06:33:39;1.25;1.00;1.00
33507;PMS7003;25568;37.410;-122.096;2024-01-15T06:36:08;1.67;1.67;1.67
33507;PMS7003;25568;37.410;-122.096;2024-01-15T06:38:37;0.67;0.67;0.67
33507;PMS7003;25568;37.410;-122.096;2024-01-15T06:41:11;2.00;2.00;1.67
33507;PMS7003;25568;37.410;-122.096;2024-01-15T06:43:41;2.67;1.00;1.00
33507;PMS7003;25568;37.410;-122.096;2024-01-15T06:46:11;1.67;0.67;0.67
33507;PMS7003;25568;37.410;-122.096;2024-01-15T06:48:44;1.00;1.00;1.00
33507;PMS7003;25568;37.410;-122.096;2024-01-15T06:51:15;1.00;0.67;0.67
33507;PMS7003;25568;37.410;-122.096;2024-01-15T06:53:45;1.67;1.00;0.67
33507;PMS7003;25568;37.410;-122.096;2024-01-15T06:56:16;3.00;2.00;2.00
33507;PMS7003;25568;37.410;-122.096;2024-01-15T06:58:46;1.00;1.00;1.00
33507;PMS7003;25568;37.410;-122.096;2024-01-15T07:01:15;0.67;0.67;0.00
33507;PMS7003;25568;37.410;-122.096;2024-01-15T07:03:45;0.67;0.67;0.00
33507;PMS7003;25568;37.410;-122.096;2024-01-15T07:06:15;1.00;1.00;1.00
33507;PMS7003;25568;37.410;-122.096;2024-01-15T07:08:46;0.33;0.00;0.00
33507;PMS7003;25568;37.410;-122.096;2024-01-15T07:11:19;1.33;1.00;1.00
33507;PMS7003;25568;37.410;-122.096;2024-01-15T07:13:49;2.00;1.33;1.33
33507;PMS7003;25568;37.410;-122.096;2024-01-15T07:16:19;1.00;0.67;0.67
33507;PMS7003;25568;37.410;-122.096;2024-01-15T07:18:49;1.00;1.00;1.00
33507;PMS7003;25568;37.410;-122.096;2024-01-15T07:21:18;0.00;0.00;0.00
33507;PMS7003;25568;37.410;-122.096;2024-01-15T07:23:47;1.00;1.00;0.67
33507;PMS7003;25568;37.410;-122.096;2024-01-15T07:26:18;0.00;0.00;0.00
33507;PMS7003;25568;37.410;-122.096;2024-01-15T07:28:47;0.00;0.00;0.00
33507;PMS7003;25568;37.410;-122.096;2024-01-15T07:31:17;0.00;0.00;0.00
33507;PMS7003;25568;37.410;-122.096;2024-01-15T07:33:47;0.33;0.00;0.00
33507;PMS7003;25568;37.410;-122.096;2024-01-15T07:36:17;0.67;0.00;0.00
33507;PMS7003;25568;37.410;-122.096;2024-01-15T07:38:46;0.00;0.00;0.00
33507;PMS7003;25568;37.410;-122.096;2024-01-15T07:41:18;0.00;0.00;0.00
33507;PMS7003;25568;37.410;-122.096;2024-01-15T07:43:49;0.00;0.00;0.00
33507;PMS7003;25568;37.410;-122.096;2024-01-15T07:46:18;0.00;0.00;0.00
33507;PMS7003;25568;37.410;-122.096;2024-01-15T07:48:47;0.00;0.00;0.00
33507;PMS7003;25568;37.410;-122.096;2024-01-15T07:51:21;0.67;0.00;0.00
33507;PMS7003;25568;37.410;-122.096;2024-01-15T07:53:52;0.00;0.00;0.00
33507;PMS7003;25568;37.410;-122.096;2024-01-15T07:56:24;0.00;0.00;0.00
33507;PMS7003;25568;37.410;-122.096;2024-01-15T07:58:54;0.00;0.00;0.00
33507;PMS7003;25568;37.410;-122.096;2024-01-15T08:01:25;0.00;0.00;0.00
33507;PMS7003;25568;37.410;-122.096;2024-01-15T08:03:55;0.00;0.00;0.00
33507;PMS7003;25568;37.410;-122.096;2024-01-15T08:06:24;0.00;0.00;0.00
33507;PMS7003;25568;37.410;-122.096;2024-01-15T08:08:54;0.00;0.00;0.00
33507;PMS7003;25568;37.410;-122.096;2024-01-15T08:11:30;0.00;0.00;0.00
33507;PMS7003;25568;37.410;-122.096;2024-01-15T08:13:59;0.00;0.00;0.00
33507;PMS7003;25568;37.410;-122.096;2024-01-15T08:16:29;0.00;0.00;0.00
33507;PMS7003;25568;37.410;-122.096;2024-01-15T08:18:59;0.00;0.00;0.00
33507;PMS7003;25568;37.410;-122.096;2024-01-15T08:21:29;0.00;0.00;0.00
33507;PMS7003;25568;37.410;-122.096;2024-01-15T08:23:59;0.00;0.00;0.00
33507;PMS7003;25568;37.410;-122.096;2024-01-15T08:26:31;0.00;0.00;0.00
33507;PMS7003;25568;37.410;-122.096;2024-01-15T08:29:02;0.00;0.00;0.00
33507;PMS7003;25568;37.410;-122.096;2024-01-15T08:31:36;0.00;0.00;0.00
33507;PMS7003;25568;37.410;-122.096;2024-01-15T08:34:05;0.00;0.00;0.00
33507;PMS7003;25568;37.410;-122.096;2024-01-15T08:36:35;0.00;0.00;0.00
33507;PMS7003;25568;37.410;-122.096;2024-01-15T08:39:06;0.00;0.00;0.00
33507;PMS7003;25568;37.410;-122.096;2024-01-15T08:41:38;0.00;0.00;0.00
33507;PMS7003;25568;37.410;-122.096;2024-01-15T08:44:07;0.00;0.00;0.00
33507;PMS7003;25568;37.410;-122.096;2024-01-15T08:46:36;0.00;0.00;0.00
33507;PMS7003;25568;37.410;-122.096;2024-01-15T08:49:05;0.00;0.00;0.00
33507;PMS7003;25568;37.410;-122.096;2024-01-15T08:51:35;1.00;0.00;0.00
33507;PMS7003;25568;37.410;-122.096;2024-01-15T08:54:04;0.00;0.00;0.00
33507;PMS7003;25568;37.410;-122.096;2024-01-15T08:56:35;1.33;0.00;0.00
33507;PMS7003;25568;37.410;-122.096;2024-01-15T08:59:06;0.00;0.00;0.00
33507;PMS7003;25568;37.410;-122.096;2024-01-15T09:01:38;0.00;0.00;0.00
33507;PMS7003;25568;37.410;-122.096;2024-01-15T09:04:08;0.00;0.00;0.00
33507;PMS7003;25568;37.410;-122.096;2024-01-15T09:06:38;0.00;0.00;0.00
33507;PMS7003;25568;37.410;-122.096;2024-01-15T09:09:07;0.00;0.00;0.00
33507;PMS7003;25568;37.410;-122.096;2024-01-15T09:11:39;0.00;0.00;0.00
33507;PMS7003;25568;37.410;-122.096;2024-01-15T09:14:10;0.00;0.00;0.00
33507;PMS7003;25568;37.410;-122.096;2024-01-15T09:16:42;0.00;0.00;0.00
33507;PMS7003;25568;37.410;-122.096;2024-01-15T09:19:11;0.00;0.00;0.00
33507;PMS7003;25568;37.410;-122.096;2024-01-15T09:21:40;0.00;0.00;0.00
33507;PMS7003;25568;37.410;-122.096;2024-01-15T09:24:11;0.00;0.00;0.00
33507;PMS7003;25568;37.410;-122.096;2024-01-15T09:26:41;0.00;0.00;0.00
33507;PMS7003;25568;37.410;-122.096;2024-01-15T09:29:11;0.00;0.00;0.00
33507;PMS7003;25568;37.410;-122.096;2024-01-15T09:31:42;0.00;0.00;0.00
33507;PMS7003;25568;37.410;-122.096;2024-01-15T09:34:11;0.00;0.00;0.00
33507;PMS7003;25568;37.410;-122.096;2024-01-15T09:36:41;0.00;0.00;0.00
33507;PMS7003;25568;37.410;-122.096;2024-01-15T09:39:13;0.00;0.00;0.00
33507;PMS7003;25568;37.410;-122.096;2024-01-15T09:41:44;0.00;0.00;0.00
33507;PMS7003;25568;37.410;-122.096;2024-01-15T09:44:15;0.00;0.00;0.00
33507;PMS7003;25568;37.410;-122.096;2024-01-15T09:46:46;0.00;0.00;0.00
33507;PMS7003;25568;37.410;-122.096;2024-01-15T09:49:16;0.00;0.00;0.00
33507;PMS7003;25568;37.410;-122.096;2024-01-15T09:51:45;0.00;0.00;0.00
33507;PMS7003;25568;37.410;-122.096;2024-01-15T09:54:15;0.00;0.00;0.00
33507;PMS7003;25568;37.410;-122.096;2024-01-15T09:56:48;0.00;0.00;0.00
33507;PMS7003;25568;37.410;-122.096;2024-01-15T09:59:18;0.00;0.00;0.00
33507;PMS7003;25568;37.410;-122.096;2024-01-15T10:01:48;0.00;0.00;0.00
33507;PMS7003;25568;37.410;-122.096;2024-01-15T10:04:20;0.00;0.00;0.00
33507;PMS7003;25568;37.410;-122.096;2024-01-15T10:06:51;0.00;0.00;0.00
33507;PMS7003;25568;37.410;-122.096;2024-01-15T10:09:22;0.00;0.00;0.00
33507;PMS7003;25568;37.410;-122.096;2024-01-15T10:11:54;0.00;0.00;0.00
33507;PMS7003;25568;37.410;-122.096;2024-01-15T10:14:24;0.00;0.00;0.00
33507;PMS7003;25568;37.410;-122.096;2024-01-15T10:16:54;0.00;0.00;0.00
33507;PMS7003;25568;37.410;-122.096;2024-01-15T10:19:23;0.00;0.00;0.00
33507;PMS7003;25568;37.410;-122.096;2024-01-15T10:21:59;0.00;0.00;0.00
33507;PMS7003;25568;37.410;-122.096;2024-01-15T10:24:29;0.00;0.00;0.00
33507;PMS7003;25568;37.410;-122.096;2024-01-15T10:27:07;0.00;0.00;0.00
33507;PMS7003;25568;37.410;-122.096;2024-01-15T10:29:41;0.00;0.00;0.00
33507;PMS7003;25568;37.410;-122.096;2024-01-15T10:32:11;0.00;0.00;0.00
33507;PMS7003;25568;37.410;-122.096;2024-01-15T10:34:41;0.00;0.00;0.00
33507;PMS7003;25568;37.410;-122.096;2024-01-15T10:37:10;0.00;0.00;0.00
33507;PMS7003;25568;37.410;-122.096;2024-01-15T10:39:39;0.00;0.00;0.00
33507;PMS7003;25568;37.410;-122.096;2024-01-15T10:42:12;0.00;0.00;0.00
33507;PMS7003;25568;37.410;-122.096;2024-01-15T10:44:43;0.00;0.00;0.00
33507;PMS7003;25568;37.410;-122.096;2024-01-15T10:47:13;0.00;0.00;0.00
33507;PMS7003;25568;37.410;-122.096;2024-01-15T10:49:44;0.00;0.00;0.00
33507;PMS7003;25568;37.410;-122.096;2024-01-15T10:52:14;0.00;0.00;0.00
33507;PMS7003;25568;37.410;-122.096;2024-01-15T10:54:44;0.00;0.00;0.00
33507;PMS7003;25568;37.410;-122.096;2024-01-15T10:57:17;0.00;0.00;0.00
33507;PMS7003;25568;37.410;-122.096;2024-01-15T10:59:49;0.00;0.00;0.00
33507;PMS7003;25568;37.410;-122.096;2024-01-15T11:02:21;0.00;0.00;0.00
33507;PMS7003;25568;37.410;-122.096;2024-01-15T11:04:54;0.00;0.00;0.00
33507;PMS7003;25568;37.410;-122.096;2024-01-15T11:07:23;0.00;0.00;0.00
33507;PMS7003;25568;37.410;-122.096;2024-01-15T11:09:55;0.00;0.00;0.00
33507;PMS7003;25568;37.410;-122.096;2024-01-15T11:12:28;0.00;0.00;0.00
33507;PMS7003;25568;37.410;-122.096;2024-01-15T11:15:01;0.00;0.00;0.00
33507;PMS7003;25568;37.410;-122.096;2024-01-15T11:20:31;0.00;0.00;0.00
33507;PMS7003;25568;37.410;-122.096;2024-01-15T11:23:03;0.00;0.00;0.00
33507;PMS7003;25568;37.410;-122.096;2024-01-15T11:25:34;0.00;0.00;0.00
33507;PMS7003;25568;37.410;-122.096;2024-01-15T11:28:07;0.00;0.00;0.00
33507;PMS7003;25568;37.410;-122.096;2024-01-15T11:30:36;0.00;0.00;0.00
33507;PMS7003;25568;37.410;-122.096;2024-01-15T11:33:06;0.00;0.00;0.00
33507;PMS7003;25568;37.410;-122.096;2024-01-15T11:35:56;0.00;0.00;0.00
33507;PMS7003;25568;37.410;-122.096;2024-01-15T11:38:29;0.00;0.00;0.00
33507;PMS7003;25568;37.410;-122.096;2024-01-15T11:41:01;0.00;0.00;0.00
33507;PMS7003;25568;37.410;-122.096;2024-01-15T11:43:45;0.00;0.00;0.00
33507;PMS7003;25568;37.410;-122.096;2024-01-15T11:46:16;0.00;0.00;0.00
33507;PMS7003;25568;37.410;-122.096;2024-01-15T11:48:48;0.00;0.00;0.00
33507;PMS7003;25568;37.410;-122.096;2024-01-15T11:51:28;0.00;0.00;0.00
33507;PMS7003;25568;37.410;-122.096;2024-01-15T11:53:59;0.00;0.00;0.00
33507;PMS7003;25568;37.410;-122.096;2024-01-15T11:56:35;0.00;0.00;0.00
33507;PMS7003;25568;37.410;-122.096;2024-01-15T11:59:06;0.00;0.00;0.00
33507;PMS7003;25568;37.410;-122.096;2024-01-15T12:01:36;0.00;0.00;0.00
33507;PMS7003;25568;37.410;-122.096;2024-01-15T12:04:05;0.00;0.00;0.00
33507;PMS7003;25568;37.410;-122.096;2024-01-15T12:06:36;0.00;0.00;0.00
33507;PMS7003;25568;37.410;-122.096;2024-01-15T12:09:06;0.00;0.00;0.00
33507;PMS7003;25568;37.410;-122.096;2024-01-15T12:11:36;0.00;0.00;0.00
33507;PMS7003;25568;37.410;-122.096;2024-01-15T12:14:13;0.00;0.00;0.00
33507;PMS7003;25568;37.410;-122.096;2024-01-15T12:16:43;0.00;0.00;0.00
33507;PMS7003;25568;37.410;-122.096;2024-01-15T12:19:12;0.00;0.00;0.00
33507;PMS7003;25568;37.410;-122.096;2024-01-15T12:21:44;0.00;0.00;0.00
33507;PMS7003;25568;37.410;-122.096;2024-01-15T12:24:14;0.00;0.00;0.00
33507;PMS7003;25568;37.410;-122.096;2024-01-15T12:26:45;0.00;0.00;0.00
33507;PMS7003;25568;37.410;-122.096;2024-01-15T12:29:19;0.00;0.00;0.00
33507;PMS7003;25568;37.410;-122.096;2024-01-15T12:31:53;0.00;0.00;0.00
33507;PMS7003;25568;37.410;-122.096;2024-01-15T12:34:24;0.00;0.00;0.00
33507;PMS7003;25568;37.410;-122.096;2024-01-15T12:36:57;0.00;0.00;0.00
33507;PMS7003;25568;37.410;-122.096;2024-01-15T12:39:27;0.00;0.00;0.00
33507;PMS7003;25568;37.410;-122.096;2024-01-15T12:42:01;0.00;0.00;0.00
33507;PMS7003;25568;37.410;-122.096;2024-01-15T12:44:33;0.00;0.00;0.00
33507;PMS7003;25568;37.410;-122.096;2024-01-15T12:47:04;0.00;0.00;0.00
33507;PMS7003;25568;37.410;-122.096;2024-01-15T12:49:36;0.00;0.00;0.00
33507;PMS7003;25568;37.410;-122.096;2024-01-15T12:52:08;0.00;0.00;0.00
33507;PMS7003;25568;37.410;-122.096;2024-01-15T12:54:38;0.00;0.00;0.00
33507;PMS7003;25568;37.410;-122.096;2024-01-15T12:57:08;0.00;0.00;0.00
33507;PMS7003;25568;37.410;-122.096;2024-01-15T12:59:40;0.00;0.00;0.00
33507;PMS7003;25568;37.410;-122.096;2024-01-15T13:02:10;1.00;0.00;0.00
33507;PMS7003;25568;37.410;-122.096;2024-01-15T13:04:40;0.00;0.00;0.00
33507;PMS7003;25568;37.410;-122.096;2024-01-15T13:07:09;0.00;0.00;0.00
33507;PMS7003;25568;37.410;-122.096;2024-01-15T13:09:39;0.00;0.00;0.00
33507;PMS7003;25568;37.410;-122.096;2024-01-15T13:12:13;0.00;0.00;0.00
33507;PMS7003;25568;37.410;-122.096;2024-01-15T13:14:45;0.00;0.00;0.00
33507;PMS7003;25568;37.410;-122.096;2024-01-15T13:17:15;0.00;0.00;0.00
33507;PMS7003;25568;37.410;-122.096;2024-01-15T13:19:46;0.00;0.00;0.00
33507;PMS7003;25568;37.410;-122.096;2024-01-15T13:22:16;0.00;0.00;0.00
33507;PMS7003;25568;37.410;-122.096;2024-01-15T13:24:46;0.00;0.00;0.00
33507;PMS7003;25568;37.410;-122.096;2024-01-15T13:27:16;0.00;0.00;0.00
33507;PMS7003;25568;37.410;-122.096;2024-01-15T13:29:47;0.00;0.00;0.00
33507;PMS7003;25568;37.410;-122.096;2024-01-15T13:32:19;0.00;0.00;0.00
33507;PMS7003;25568;37.410;-122.096;2024-01-15T13:34:54;0.00;0.00;0.00
33507;PMS7003;25568;37.410;-122.096;2024-01-15T13:37:24;0.00;0.00;0.00
33507;PMS7003;25568;37.410;-122.096;2024-01-15T13:39:53;0.00;0.00;0.00
33507;PMS7003;25568;37.410;-122.096;2024-01-15T13:42:24;0.00;0.00;0.00
33507;PMS7003;25568;37.410;-122.096;2024-01-15T13:44:55;0.00;0.00;0.00
33507;PMS7003;25568;37.410;-122.096;2024-01-15T13:47:25;0.00;0.00;0.00
33507;PMS7003;25568;37.410;-122.096;2024-01-15T13:49:54;0.00;0.00;0.00
33507;PMS7003;25568;37.410;-122.096;2024-01-15T13:52:24;0.00;0.00;0.00
33507;PMS7003;25568;37.410;-122.096;2024-01-15T13:54:53;0.00;0.00;0.00
33507;PMS7003;25568;37.410;-122.096;2024-01-15T13:57:22;0.00;0.00;0.00
33507;PMS7003;25568;37.410;-122.096;2024-01-15T13:59:52;0.00;0.00;0.00
33507;PMS7003;25568;37.410;-122.096;2024-01-15T14:02:25;0.00;0.00;0.00
33507;PMS7003;25568;37.410;-122.096;2024-01-15T14:04:54;0.00;0.00;0.00
33507;PMS7003;25568;37.410;-122.096;2024-01-15T14:10:05;0.00;0.00;0.00
33507;PMS7003;25568;37.410;-122.096;2024-01-15T14:12:35;0.00;0.00;0.00